createdAt,value
2023-03-26T00:02:46.013Z,6.02
2023-03-26T00:07:48.655Z,6.06
2023-03-26T00:12:50.162Z,6.13
2023-03-26T00:17:54.180Z,6.20
2023-03-26T00:22:56.342Z,6.21
2023-03-26T00:27:58.880Z,6.22
2023-03-26T00:33:00.687Z,6.22
2023-03-26T00:38:02.668Z,6.25
2023-03-26T00:43:18.446Z,6.26
2023-03-26T00:48:34.340Z,6.23
2023-03-26T00:53:45.708Z,6.22
2023-03-26T00:58:50.023Z,6.20
2023-03-26T01:04:08.304Z,6.19
2023-03-26T01:09:19.003Z,6.22
2023-03-26T01:14:25.000Z,6.23
2023-03-26T01:19:45.525Z,6.26
2023-03-26T01:24:53.036Z,6.19
2023-03-26T01:30:03.728Z,6.16
2023-03-26T01:35:18.984Z,6.13
2023-03-26T01:40:42.478Z,6.19
2023-03-26T01:45:47.754Z,6.36
2023-03-26T01:50:53.504Z,6.59
2023-03-26T01:56:24.111Z,6.62
2023-03-26T02:01:59.895Z,6.59
2023-03-26T02:07:20.932Z,6.51
2023-03-26T02:12:23.721Z,6.47
2023-03-26T02:17:25.399Z,6.45
2023-03-26T02:22:30.009Z,6.42
2023-03-26T02:27:33.982Z,6.39
2023-03-26T02:32:35.846Z,6.41
2023-03-26T02:37:38.280Z,6.37
2023-03-26T02:42:48.873Z,6.25
2023-03-26T02:47:51.081Z,6.13
2023-03-26T02:53:16.919Z,6.02
2023-03-26T02:58:25.202Z,5.88
2023-03-26T03:03:27.662Z,5.81
2023-03-26T03:08:35.140Z,5.81
2023-03-26T03:13:51.991Z,5.71
2023-03-26T03:18:58.407Z,5.60
2023-03-26T03:24:13.785Z,5.61
2023-03-26T03:29:18.731Z,5.63
2023-03-26T03:34:21.680Z,5.70
2023-03-26T03:39:25.678Z,5.80
2023-03-26T03:44:27.465Z,5.80
2023-03-26T03:49:29.600Z,5.78
2023-03-26T03:54:32.367Z,5.81
2023-03-26T03:59:49.214Z,5.81
2023-03-26T04:04:53.144Z,5.82
2023-03-26T04:09:57.186Z,5.86
2023-03-26T04:15:00.582Z,5.86
2023-03-26T04:20:06.882Z,5.86
2023-03-26T04:25:10.052Z,5.92
2023-03-26T04:30:20.682Z,5.93
2023-03-26T04:35:30.417Z,5.93
2023-03-26T04:40:34.614Z,5.91
2023-03-26T04:46:03.339Z,5.93
2023-03-26T04:51:10.319Z,6.00
2023-03-26T04:56:32.509Z,6.04
2023-03-26T05:01:53.640Z,5.93
2023-03-26T05:06:58.408Z,5.83
2023-03-26T05:12:08.660Z,5.86
2023-03-26T05:17:24.554Z,5.89
2023-03-26T05:22:26.313Z,5.96
2023-03-26T05:27:44.564Z,6.03
2023-03-26T05:32:48.836Z,6.18
2023-03-26T05:37:53.334Z,6.28
2023-03-26T05:42:58.236Z,6.31
2023-03-26T05:48:11.657Z,6.25
2023-03-26T05:53:13.224Z,6.34
2023-03-26T05:58:47.569Z,6.44
2023-03-26T06:04:18.335Z,6.50
2023-03-26T06:09:45.832Z,6.53
2023-03-26T06:14:47.650Z,6.63
2023-03-26T06:20:09.573Z,6.80
2023-03-26T06:25:17.451Z,6.93
2023-03-26T06:30:30.351Z,7.03
2023-03-26T06:35:40.878Z,7.05
2023-03-26T06:40:42.513Z,7.10
2023-03-26T06:46:09.281Z,7.17
2023-03-26T06:51:13.415Z,7.20
2023-03-26T06:56:33.269Z,7.34
2023-03-26T07:01:54.876Z,7.47
2023-03-26T07:07:15.032Z,7.63
2023-03-26T07:12:53.402Z,7.68
2023-03-26T07:18:13.584Z,7.82
2023-03-26T07:23:20.483Z,7.82
2023-03-26T07:29:03.766Z,7.65
2023-03-26T07:34:46.282Z,7.46
2023-03-26T07:40:17.662Z,7.42
2023-03-26T07:45:45.063Z,7.28
2023-03-26T07:51:25.398Z,7.20
2023-03-26T07:56:38.909Z,7.26
2023-03-26T08:02:31.538Z,7.19
2023-03-26T08:08:00.834Z,7.15
2023-03-26T08:13:35.801Z,6.92
2023-03-26T08:18:54.582Z,6.80
2023-03-26T08:24:12.558Z,6.81
2023-03-26T08:29:29.304Z,7.05
2023-03-26T08:34:30.990Z,7.35
2023-03-26T08:39:32.515Z,7.51
2023-03-26T08:44:47.738Z,7.84
2023-03-26T08:50:29.945Z,8.60
2023-03-26T08:55:48.768Z,8.98
2023-03-26T09:01:09.124Z,9.23
2023-03-26T09:06:40.888Z,9.64
2023-03-26T09:12:01.919Z,9.47
2023-03-26T09:17:36.856Z,9.96
2023-03-26T09:22:56.298Z,10.78
2023-03-26T09:28:35.280Z,11.28
2023-03-26T09:34:01.515Z,11.71
2023-03-26T09:39:10.112Z,12.26
2023-03-26T09:44:14.302Z,12.94
2023-03-26T09:49:38.991Z,13.03
2023-03-26T09:54:58.626Z,13.25
2023-03-26T10:00:15.884Z,13.28
2023-03-26T10:05:26.784Z,13.01
2023-03-26T10:10:55.677Z,13.01
2023-03-26T10:16:15.484Z,13.32
2023-03-26T10:21:28.509Z,13.31
2023-03-26T10:27:08.649Z,13.21
2023-03-26T10:32:25.748Z,13.21
2023-03-26T10:37:41.435Z,13.30
2023-03-26T10:43:19.706Z,13.20
2023-03-26T10:48:41.969Z,13.13
2023-03-26T10:53:49.301Z,12.67
2023-03-26T10:58:51.349Z,12.61
2023-03-26T11:03:55.650Z,12.79
2023-03-26T11:09:13.655Z,12.92
2023-03-26T11:14:33.772Z,13.09
2023-03-26T11:19:48.301Z,13.21
2023-03-26T11:25:00.994Z,13.38
2023-03-26T11:30:22.513Z,13.15
2023-03-26T11:35:40.969Z,13.07
2023-03-26T11:40:50.549Z,13.07
2023-03-26T11:46:04.218Z,13.10
2023-03-26T11:51:10.300Z,13.15
2023-03-26T11:56:24.567Z,13.28
2023-03-26T12:01:30.999Z,13.20
2023-03-26T12:06:33.055Z,13.21
2023-03-26T12:11:35.822Z,13.52
2023-03-26T12:16:37.450Z,13.57
2023-03-26T12:21:50.559Z,13.54
2023-03-26T12:26:58.396Z,13.76
2023-03-26T12:32:14.972Z,14.01
2023-03-26T12:37:36.169Z,14.06
2023-03-26T12:44:47.212Z,14.72
2023-03-26T12:48:04.083Z,15.35
2023-03-26T12:53:21.112Z,15.20
2023-03-26T12:58:43.424Z,14.87
2023-03-26T13:04:22.386Z,14.87
2023-03-26T13:09:37.704Z,15.26
2023-03-26T13:15:18.120Z,15.93
2023-03-26T13:20:48.782Z,15.67
2023-03-26T13:26:11.361Z,15.20
2023-03-26T13:31:31.661Z,15.00
2023-03-26T13:36:42.613Z,14.62
2023-03-26T13:42:07.156Z,14.45
2023-03-26T13:47:18.572Z,13.79
2023-03-26T13:52:27.582Z,12.77
2023-03-26T13:57:41.595Z,11.74
2023-03-26T14:02:47.743Z,10.03
2023-03-26T14:07:55.147Z,8.85
2023-03-26T14:13:17.746Z,7.88
2023-03-26T14:18:33.878Z,7.49
2023-03-26T14:23:57.315Z,7.40
2023-03-26T14:29:04.801Z,7.20
2023-03-26T14:34:26.631Z,7.14
2023-03-26T14:39:54.073Z,7.25
2023-03-26T14:45:07.767Z,7.25
2023-03-26T14:50:48.081Z,7.25
2023-03-26T14:56:10.252Z,7.31
2023-03-26T15:01:25.352Z,7.22
2023-03-26T15:06:45.457Z,7.12
2023-03-26T15:12:24.380Z,7.12
2023-03-26T15:17:45.035Z,7.17
2023-03-26T15:23:23.996Z,7.13
2023-03-26T15:29:11.791Z,7.07
2023-03-26T15:34:45.056Z,7.17
2023-03-26T15:40:36.268Z,7.20
2023-03-26T15:45:45.265Z,7.30
2023-03-26T15:51:08.330Z,7.35
2023-03-26T15:56:49.251Z,7.40
2023-03-26T16:02:16.098Z,7.42
2023-03-26T16:07:41.372Z,7.33
2023-03-26T16:13:20.661Z,7.32
2023-03-26T16:18:45.005Z,7.40
2023-03-26T16:23:49.718Z,7.48
2023-03-26T16:28:52.878Z,7.51
2023-03-26T16:34:17.761Z,7.54
2023-03-26T16:39:23.048Z,7.53
2023-03-26T16:44:49.602Z,7.68
2023-03-26T16:50:07.382Z,7.72
2023-03-26T16:55:28.607Z,7.67
2023-03-26T17:01:02.071Z,7.62
2023-03-26T17:06:30.031Z,7.61
2023-03-26T17:11:46.275Z,7.53
2023-03-26T17:17:17.048Z,7.47
2023-03-26T17:22:34.901Z,7.42
2023-03-26T17:27:43.931Z,7.45
2023-03-26T17:33:06.250Z,7.25
2023-03-26T17:38:16.888Z,6.73
2023-03-26T17:43:56.687Z,6.46
2023-03-26T17:49:18.423Z,6.37
2023-03-26T17:54:27.156Z,6.20
2023-03-26T17:59:29.391Z,6.09
2023-03-26T18:04:36.437Z,6.01
2023-03-26T18:10:04.954Z,5.90
2023-03-26T18:15:27.871Z,5.82
2023-03-26T18:20:29.677Z,5.71
2023-03-26T18:25:34.072Z,5.61
2023-03-26T18:30:46.944Z,5.46
2023-03-26T18:35:55.595Z,5.36
2023-03-26T18:40:57.576Z,5.25
2023-03-26T18:45:59.368Z,5.19
2023-03-26T18:51:05.750Z,5.23
2023-03-26T18:56:20.761Z,5.27
2023-03-26T19:01:25.950Z,5.23
2023-03-26T19:06:28.841Z,5.13
2023-03-26T19:11:30.544Z,5.02
2023-03-26T19:16:35.518Z,5.01
2023-03-26T19:21:37.186Z,5.08
2023-03-26T19:26:38.786Z,5.21
2023-03-26T19:31:40.591Z,5.26
2023-03-26T19:37:22.085Z,5.27
2023-03-26T19:42:44.078Z,5.18
2023-03-26T19:47:50.110Z,5.12
2023-03-26T19:53:37.308Z,5.19
2023-03-26T19:58:42.784Z,5.27
2023-03-26T20:03:48.024Z,5.36
2023-03-26T20:08:51.282Z,5.47
2023-03-26T20:13:52.909Z,5.60
2023-03-26T20:18:58.402Z,5.80
2023-03-26T20:24:00.756Z,6.00
2023-03-26T20:29:03.464Z,6.14
2023-03-26T20:34:07.345Z,6.27
2023-03-26T20:39:09.600Z,6.33
2023-03-26T20:44:15.121Z,6.36
2023-03-26T20:49:17.863Z,6.34
2023-03-26T20:54:23.329Z,6.25
2023-03-26T20:59:27.497Z,6.03
2023-03-26T21:04:29.230Z,5.91
2023-03-26T21:09:34.951Z,5.85
2023-03-26T21:14:41.063Z,5.83
2023-03-26T21:19:43.702Z,5.80
2023-03-26T21:24:54.744Z,5.80
2023-03-26T21:29:58.102Z,5.81
2023-03-26T21:35:00.019Z,5.83
2023-03-26T21:40:12.471Z,5.82
2023-03-26T21:45:15.160Z,5.79
2023-03-26T21:50:20.549Z,5.77
2023-03-26T21:55:23.729Z,5.77
2023-03-26T22:00:43.180Z,5.73
2023-03-26T22:05:54.273Z,5.72
2023-03-26T22:10:56.391Z,5.74
2023-03-26T22:15:58.087Z,5.73
2023-03-26T22:21:00.061Z,5.73
2023-03-26T22:26:02.869Z,5.75
2023-03-26T22:31:08.846Z,5.75
2023-03-26T22:36:23.286Z,5.74
2023-03-26T22:41:25.776Z,5.72
2023-03-26T22:46:27.713Z,5.70
2023-03-26T22:51:30.046Z,5.72
2023-03-26T22:56:31.782Z,5.73
2023-03-26T23:01:34.646Z,5.74
2023-03-26T23:06:36.165Z,5.75
2023-03-26T23:11:37.676Z,5.76
2023-03-26T23:16:39.239Z,5.82
2023-03-26T23:21:40.745Z,5.80
2023-03-26T23:26:50.474Z,5.83
2023-03-26T23:31:54.023Z,5.73
2023-03-26T23:36:55.619Z,5.62
2023-03-26T23:41:57.143Z,5.53
2023-03-26T23:47:00.502Z,5.39
2023-03-26T23:52:02.045Z,5.29
2023-03-26T23:57:04.114Z,5.23
